createdAt,value
2018-04-01T00:00:24.898Z,91.33
2018-04-01T00:01:24.946Z,91.36
2018-04-01T00:02:24.948Z,91.36
2018-04-01T00:03:24.829Z,91.25
2018-04-01T00:04:24.942Z,91.17
2018-04-01T00:05:24.916Z,91.14
2018-04-01T00:06:24.831Z,91.20
2018-04-01T00:07:24.945Z,91.33
2018-04-01T00:08:24.945Z,91.52
2018-04-01T00:09:24.853Z,91.65
2018-04-01T00:10:24.833Z,91.55
2018-04-01T00:11:24.867Z,91.52
2018-04-01T00:12:24.947Z,91.47
2018-04-01T00:13:24.835Z,91.52
2018-04-01T00:14:24.952Z,91.52
2018-04-01T00:15:24.985Z,91.52
2018-04-01T00:16:24.902Z,91.57
2018-04-01T00:17:24.837Z,91.60
2018-04-01T00:18:24.955Z,91.73
2018-04-01T00:19:24.953Z,91.84
2018-04-01T00:20:24.865Z,91.92
2018-04-01T00:21:24.860Z,91.92
2018-04-01T00:22:24.863Z,91.79
2018-04-01T00:23:24.957Z,91.71
2018-04-01T00:24:24.954Z,91.65
2018-04-01T00:25:24.868Z,91.65
2018-04-01T00:26:24.837Z,91.71
2018-04-01T00:27:24.837Z,91.71
2018-04-01T00:28:24.965Z,91.65
2018-04-01T00:29:24.841Z,91.68
2018-04-01T00:30:24.924Z,91.65
2018-04-01T00:31:24.876Z,91.76
2018-04-01T00:32:24.906Z,91.92
2018-04-01T00:33:24.868Z,91.90
2018-04-01T00:34:24.966Z,91.90
2018-04-01T00:35:24.913Z,92.01
2018-04-01T00:36:24.915Z,92.05
2018-04-01T00:37:24.911Z,92.05
2018-04-01T00:38:24.849Z,91.92
2018-04-01T00:39:24.882Z,91.76
2018-04-01T00:40:24.993Z,91.52
2018-04-01T00:41:24.968Z,91.33
2018-04-01T00:42:24.913Z,91.33
2018-04-01T00:43:24.892Z,91.36
2018-04-01T00:44:24.875Z,91.30
2018-04-01T00:45:24.965Z,91.25
2018-04-01T00:46:24.977Z,91.20
2018-04-01T00:47:24.962Z,91.33
2018-04-01T00:48:24.916Z,91.49
2018-04-01T00:49:24.878Z,91.60
2018-04-01T00:50:24.878Z,91.73
2018-04-01T00:51:24.952Z,91.92
2018-04-01T00:52:24.972Z,91.92
2018-04-01T00:53:24.860Z,91.92
2018-04-01T00:54:25.024Z,91.86
2018-04-01T00:55:24.981Z,91.92
2018-04-01T00:56:24.919Z,91.97
2018-04-01T00:57:24.865Z,92.14
2018-04-01T00:58:24.950Z,92.22
2018-04-01T00:59:24.927Z,92.32
2018-04-01T01:00:24.973Z,92.16
2018-04-01T01:01:24.978Z,92.14
2018-04-01T01:02:24.889Z,92.16
2018-04-01T01:03:24.890Z,92.22
2018-04-01T01:04:24.933Z,92.30
2018-04-01T01:05:24.934Z,92.27
2018-04-01T01:06:24.956Z,92.14
2018-04-01T01:07:24.960Z,91.97
2018-04-01T01:08:24.934Z,91.79
2018-04-01T01:09:24.894Z,91.73
2018-04-01T01:10:24.978Z,91.92
2018-04-01T01:11:24.981Z,92.01
2018-04-01T01:12:24.960Z,92.11
2018-04-01T01:13:24.941Z,92.14
2018-04-01T01:14:24.981Z,92.14
2018-04-01T01:15:24.902Z,92.16
2018-04-01T01:16:24.968Z,92.08
2018-04-01T01:17:24.986Z,92.11
2018-04-01T01:18:24.905Z,92.14
2018-04-01T01:19:24.994Z,92.19
2018-04-01T01:20:24.877Z,92.27
2018-04-01T01:21:24.990Z,92.38
2018-04-01T01:22:24.934Z,92.51
2018-04-01T01:23:24.906Z,92.51
2018-04-01T01:24:24.937Z,92.30
2018-04-01T01:25:24.882Z,92.24
2018-04-01T01:26:24.968Z,92.16
2018-04-01T01:27:24.943Z,92.08
2018-04-01T01:28:24.970Z,92.11
2018-04-01T01:29:24.883Z,92.14
2018-04-01T01:30:25.006Z,92.19
2018-04-01T01:31:25.025Z,92.16
2018-04-01T01:32:24.905Z,92.27
2018-04-01T01:33:24.981Z,92.38
2018-04-01T01:34:24.911Z,92.49
2018-04-01T01:35:24.978Z,92.57
2018-04-01T01:36:24.919Z,92.43
2018-04-01T01:37:24.999Z,92.49
2018-04-01T01:38:24.945Z,92.49
2018-04-01T01:39:24.886Z,92.51
2018-04-01T01:40:24.980Z,92.57
2018-04-01T01:41:24.949Z,92.57
2018-04-01T01:42:24.980Z,92.59
2018-04-01T01:43:25.012Z,92.70
2018-04-01T01:44:24.885Z,92.70
2018-04-01T01:45:24.952Z,92.78
2018-04-01T01:46:24.951Z,92.86
2018-04-01T01:47:25.009Z,92.95
2018-04-01T01:48:24.931Z,92.99
2018-04-01T01:49:24.923Z,93.10
2018-04-01T01:50:25.006Z,93.18
2018-04-01T01:51:24.959Z,93.26
2018-04-01T01:52:24.897Z,93.29
2018-04-01T01:53:25.014Z,93.29
2018-04-01T01:54:24.951Z,93.13
2018-04-01T01:55:24.898Z,93.24
2018-04-01T01:56:24.962Z,93.29
2018-04-01T01:57:24.988Z,93.37
2018-04-01T01:58:24.903Z,93.40
2018-04-01T01:59:24.970Z,93.45
2018-04-01T02:00:25.017Z,93.43
2018-04-01T02:01:24.938Z,93.35
2018-04-01T02:02:24.930Z,93.35
2018-04-01T02:03:25.015Z,93.35
2018-04-01T02:04:24.934Z,93.29
2018-04-01T02:05:24.996Z,93.35
2018-04-01T02:06:24.905Z,93.40
2018-04-01T02:07:25.016Z,93.40
2018-04-01T02:08:24.923Z,93.40
2018-04-01T02:09:24.977Z,93.45
2018-04-01T02:10:24.930Z,93.43
2018-04-01T02:11:24.973Z,93.48
2018-04-01T02:12:24.930Z,93.51
2018-04-01T02:13:24.938Z,93.54
2018-04-01T02:14:25.023Z,93.62
2018-04-01T02:15:24.911Z,93.62
2018-04-01T02:16:25.025Z,93.64
2018-04-01T02:17:24.976Z,93.62
2018-04-01T02:18:25.035Z,93.70
2018-04-01T02:19:24.985Z,93.70
2018-04-01T02:20:25.032Z,93.70
2018-04-01T02:21:24.939Z,93.67
2018-04-01T02:22:25.032Z,93.67
2018-04-01T02:23:24.934Z,93.51
2018-04-01T02:24:24.913Z,93.40
2018-04-01T02:25:25.033Z,93.40
2018-04-01T02:26:25.019Z,93.48
2018-04-01T02:27:25.040Z,93.37
2018-04-01T02:28:24.920Z,93.35
2018-04-01T02:29:24.917Z,93.29
2018-04-01T02:30:25.033Z,93.16
2018-04-01T02:31:25.083Z,93.18
2018-04-01T02:32:25.038Z,93.21
2018-04-01T02:33:24.981Z,93.16
2018-04-01T02:34:24.948Z,93.16
2018-04-01T02:35:25.046Z,93.16
2018-04-01T02:36:24.949Z,93.24
2018-04-01T02:37:25.036Z,93.29
2018-04-01T02:38:25.031Z,93.18
2018-04-01T02:39:25.045Z,93.16
2018-04-01T02:40:25.052Z,93.13
2018-04-01T02:41:24.950Z,93.21
2018-04-01T02:42:24.962Z,93.29
2018-04-01T02:43:25.036Z,93.35
2018-04-01T02:44:24.930Z,93.45
2018-04-01T02:45:25.039Z,93.62
2018-04-01T02:46:25.013Z,93.72
2018-04-01T02:47:24.955Z,93.85
2018-04-01T02:48:25.044Z,93.94
2018-04-01T02:49:24.966Z,93.91
2018-04-01T02:50:24.936Z,93.85
2018-04-01T02:51:25.038Z,93.94
2018-04-01T02:52:25.041Z,93.89
2018-04-01T02:53:25.050Z,93.91
2018-04-01T02:54:25.072Z,93.89
2018-04-01T02:55:25.044Z,93.89
2018-04-01T02:56:25.001Z,93.91
2018-04-01T02:57:24.971Z,93.94
2018-04-01T02:58:25.058Z,93.96
2018-04-01T02:59:25.060Z,93.96
2018-04-01T03:00:24.934Z,93.94
2018-04-01T03:01:25.078Z,94.02
2018-04-01T03:02:24.943Z,94.07
2018-04-01T03:03:24.974Z,94.02
2018-04-01T03:04:25.004Z,93.85
2018-04-01T03:05:24.965Z,93.70
2018-04-01T03:06:25.056Z,93.67
2018-04-01T03:07:25.034Z,93.67
2018-04-01T03:08:25.029Z,93.45
2018-04-01T03:09:25.036Z,93.21
2018-04-01T03:10:24.973Z,93.05
2018-04-01T03:11:24.967Z,92.99
2018-04-01T03:12:25.063Z,92.89
2018-04-01T03:13:24.973Z,92.73
2018-04-01T03:14:24.972Z,92.65
2018-04-01T03:15:24.947Z,92.68
2018-04-01T03:16:24.979Z,92.62
2018-04-01T03:17:24.950Z,92.59
2018-04-01T03:18:25.011Z,92.65
2018-04-01T03:19:24.979Z,92.73
2018-04-01T03:20:25.015Z,92.73
2018-04-01T03:21:25.057Z,92.73
2018-04-01T03:22:25.022Z,92.84
2018-04-01T03:23:25.043Z,92.89
2018-04-01T03:24:25.102Z,92.84
2018-04-01T03:25:24.954Z,92.78
2018-04-01T03:26:25.042Z,92.78
2018-04-01T03:27:24.997Z,92.70
2018-04-01T03:28:25.023Z,92.70
2018-04-01T03:29:25.042Z,92.76
2018-04-01T03:30:25.074Z,92.81
2018-04-01T03:31:25.026Z,92.95
2018-04-01T03:32:25.078Z,93.05
2018-04-01T03:33:25.023Z,92.91
2018-04-01T03:34:25.018Z,92.86
2018-04-01T03:35:25.074Z,92.95
2018-04-01T03:36:24.986Z,92.97
2018-04-01T03:37:25.079Z,92.91
2018-04-01T03:38:25.068Z,92.84
2018-04-01T03:39:24.961Z,92.84
2018-04-01T03:40:25.028Z,92.84
2018-04-01T03:41:24.961Z,92.84
2018-04-01T03:42:25.054Z,92.70
2018-04-01T03:43:25.076Z,92.70
2018-04-01T03:44:25.032Z,92.76
2018-04-01T03:45:25.084Z,92.91
2018-04-01T03:46:25.019Z,92.97
2018-04-01T03:47:24.997Z,92.97
2018-04-01T03:48:24.989Z,92.99
2018-04-01T03:49:25.008Z,92.99
2018-04-01T03:50:25.085Z,93.13
2018-04-01T03:51:25.057Z,93.16
2018-04-01T03:52:25.065Z,93.18
2018-04-01T03:53:25.083Z,93.32
2018-04-01T03:54:25.002Z,93.37
2018-04-01T03:55:24.993Z,93.40
2018-04-01T03:56:24.995Z,93.40
2018-04-01T03:57:25.095Z,93.37
2018-04-01T03:58:25.087Z,93.26
2018-04-01T03:59:25.036Z,93.26
2018-04-01T04:00:25.063Z,93.37
2018-04-01T04:01:25.007Z,93.48
2018-04-01T04:02:25.062Z,93.59
2018-04-01T04:03:24.985Z,93.59
2018-04-01T04:04:25.097Z,93.64
2018-04-01T04:05:25.002Z,93.70
2018-04-01T04:06:25.005Z,93.72
2018-04-01T04:07:25.043Z,93.72
2018-04-01T04:08:25.003Z,93.78
2018-04-01T04:09:25.092Z,93.85
2018-04-01T04:10:25.014Z,93.85
2018-04-01T04:11:25.092Z,93.81
2018-04-01T04:12:24.979Z,93.75
2018-04-01T04:13:25.005Z,93.72
2018-04-01T04:14:24.986Z,93.75
2018-04-01T04:15:25.045Z,93.75
2018-04-01T04:16:25.102Z,93.75
2018-04-01T04:17:25.052Z,93.85
2018-04-01T04:18:25.018Z,93.91
2018-04-01T04:19:25.100Z,93.96
2018-04-01T04:20:25.076Z,94.02
2018-04-01T04:21:25.077Z,93.91
2018-04-01T04:22:25.011Z,93.83
2018-04-01T04:23:25.081Z,93.70
2018-04-01T04:24:25.103Z,93.70
2018-04-01T04:25:25.100Z,93.64
2018-04-01T04:26:25.021Z,93.59
2018-04-01T04:27:25.010Z,93.45
2018-04-01T04:28:25.101Z,93.40
2018-04-01T04:29:25.013Z,93.37
2018-04-01T04:30:25.104Z,93.37
2018-04-01T04:31:25.081Z,93.24
2018-04-01T04:32:25.089Z,93.18
2018-04-01T04:33:25.100Z,93.24
2018-04-01T04:34:25.050Z,93.26
2018-04-01T04:35:25.109Z,93.13
2018-04-01T04:36:25.154Z,93.21
2018-04-01T04:37:25.113Z,93.26
2018-04-01T04:38:24.993Z,93.32
2018-04-01T04:39:25.085Z,93.32
2018-04-01T04:40:25.028Z,93.37
2018-04-01T04:41:25.059Z,93.51
2018-04-01T04:42:25.111Z,93.67
2018-04-01T04:43:25.117Z,93.70
2018-04-01T04:44:25.112Z,93.75
2018-04-01T04:45:25.006Z,93.85
2018-04-01T04:46:25.006Z,93.89
2018-04-01T04:47:25.113Z,93.81
2018-04-01T04:48:25.125Z,93.70
2018-04-01T04:49:25.065Z,93.64
2018-04-01T04:50:25.026Z,93.62
2018-04-01T04:51:25.030Z,93.62
2018-04-01T04:52:25.099Z,93.59
2018-04-01T04:53:25.075Z,93.54
2018-04-01T04:54:25.066Z,93.62
2018-04-01T04:55:25.031Z,93.62
2018-04-01T04:56:25.058Z,93.62
2018-04-01T04:57:25.121Z,93.67
2018-04-01T04:58:25.044Z,93.70
2018-04-01T04:59:25.034Z,93.83
2018-04-01T05:00:25.071Z,93.83
2018-04-01T05:01:25.073Z,93.83
2018-04-01T05:02:25.034Z,93.91
2018-04-01T05:03:25.081Z,93.96
2018-04-01T05:04:25.046Z,94.04
2018-04-01T05:05:25.049Z,94.02
2018-04-01T05:06:25.037Z,93.94
2018-04-01T05:07:25.103Z,93.89
2018-04-01T05:08:25.143Z,93.89
2018-04-01T05:09:25.051Z,93.75
2018-04-01T05:10:25.126Z,93.70
2018-04-01T05:11:25.046Z,93.64
2018-04-01T05:12:25.042Z,93.59
2018-04-01T05:13:25.041Z,93.51
2018-04-01T05:14:25.130Z,93.56
2018-04-01T05:15:25.041Z,93.64
2018-04-01T05:16:25.044Z,93.70
2018-04-01T05:17:25.137Z,93.81
2018-04-01T05:18:25.046Z,93.89
2018-04-01T05:19:25.079Z,93.89
2018-04-01T05:20:25.046Z,94.02
2018-04-01T05:21:25.092Z,94.04
2018-04-01T05:22:25.080Z,94.02
2018-04-01T05:23:25.142Z,94.04
2018-04-01T05:24:25.094Z,94.18
2018-04-01T05:25:25.086Z,94.23
2018-04-01T05:26:25.056Z,94.23
2018-04-01T05:27:25.147Z,94.29
2018-04-01T05:28:25.118Z,94.34
2018-04-01T05:29:25.042Z,94.40
2018-04-01T05:30:25.032Z,94.48
2018-04-01T05:31:25.121Z,94.56
2018-04-01T05:32:25.025Z,94.75
2018-04-01T05:33:25.143Z,94.88
2018-04-01T05:34:25.028Z,94.99
2018-04-01T05:35:25.121Z,95.15
2018-04-01T05:36:25.126Z,95.23
2018-04-01T05:37:25.064Z,95.26
2018-04-01T05:38:25.059Z,95.26
2018-04-01T05:39:25.153Z,95.37
2018-04-01T05:40:25.134Z,95.61
2018-04-01T05:41:25.092Z,95.88
2018-04-01T05:42:25.105Z,96.26
2018-04-01T05:43:25.088Z,96.66
2018-04-01T05:44:25.145Z,96.96
2018-04-01T05:45:25.036Z,97.28
2018-04-01T05:46:25.160Z,97.55
2018-04-01T05:47:25.048Z,97.74
2018-04-01T05:48:25.069Z,97.99
2018-04-01T05:49:25.045Z,98.23
2018-04-01T05:50:25.036Z,98.48
2018-04-01T05:51:25.127Z,98.69
2018-04-01T05:52:25.154Z,98.91
2018-04-01T05:53:25.099Z,99.07
2018-04-01T05:54:25.154Z,99.32
2018-04-01T05:55:25.071Z,99.45
2018-04-01T05:56:25.044Z,99.62
2018-04-01T05:57:25.136Z,99.78
2018-04-01T05:58:25.126Z,99.86
2018-04-01T05:59:25.152Z,99.99
2018-04-01T06:00:25.100Z,99.99
2018-04-01T06:01:25.165Z,99.99
2018-04-01T06:02:25.107Z,99.99
2018-04-01T06:03:25.109Z,99.99
2018-04-01T06:04:25.077Z,99.99
2018-04-01T06:05:25.141Z,99.99
2018-04-01T06:06:25.139Z,99.99
2018-04-01T06:07:25.162Z,99.99
2018-04-01T06:08:25.110Z,99.99
2018-04-01T06:09:25.105Z,99.99
2018-04-01T06:10:25.073Z,99.99
2018-04-01T06:11:25.170Z,99.99
2018-04-01T06:12:25.144Z,99.99
2018-04-01T06:13:25.049Z,99.99
2018-04-01T06:14:25.164Z,99.99
2018-04-01T06:15:25.175Z,99.99
2018-04-01T06:16:25.079Z,99.99
2018-04-01T06:17:25.081Z,99.99
2018-04-01T06:18:25.084Z,99.99
2018-04-01T06:19:25.079Z,99.99
2018-04-01T06:20:25.178Z,99.99
2018-04-01T06:21:25.149Z,99.99
2018-04-01T06:22:25.102Z,99.99
2018-04-01T06:23:25.172Z,99.99
2018-04-01T06:24:25.171Z,99.99
2018-04-01T06:25:25.130Z,99.99
2018-04-01T06:26:25.234Z,99.99
2018-04-01T06:27:25.132Z,99.99
2018-04-01T06:28:25.086Z,99.99
2018-04-01T06:29:25.063Z,99.99
2018-04-01T06:30:25.186Z,99.99
2018-04-01T06:31:25.127Z,99.99
2018-04-01T06:32:25.125Z,99.99
2018-04-01T06:33:25.089Z,99.99
2018-04-01T06:34:25.125Z,99.99
2018-04-01T06:35:25.093Z,99.99
2018-04-01T06:36:25.136Z,99.99
2018-04-01T06:37:25.096Z,99.99
2018-04-01T06:38:25.070Z,99.99
2018-04-01T06:39:25.178Z,99.99
2018-04-01T06:40:25.156Z,99.99
2018-04-01T06:41:25.186Z,99.99
2018-04-01T06:42:25.163Z,99.99
2018-04-01T06:43:25.136Z,99.99
2018-04-01T06:44:25.113Z,99.99
2018-04-01T06:45:25.208Z,99.99
2018-04-01T06:46:25.191Z,99.99
2018-04-01T06:47:25.169Z,99.99
2018-04-01T06:48:25.169Z,99.99
2018-04-01T06:49:25.135Z,99.99
2018-04-01T06:50:25.071Z,99.99
2018-04-01T06:51:25.163Z,99.99
2018-04-01T06:52:25.160Z,99.99
2018-04-01T06:53:25.133Z,99.99
2018-04-01T06:54:25.170Z,99.99
2018-04-01T06:55:25.136Z,99.99
2018-04-01T06:56:25.173Z,99.99
2018-04-01T06:57:25.140Z,99.99
2018-04-01T06:58:25.139Z,99.99
2018-04-01T06:59:25.222Z,99.99
2018-04-01T07:00:25.104Z,99.99
2018-04-01T07:01:25.084Z,99.99
2018-04-01T07:02:25.090Z,99.99
2018-04-01T07:03:25.082Z,99.99
2018-04-01T07:04:25.197Z,99.99
2018-04-01T07:05:25.168Z,99.99
2018-04-01T07:06:25.141Z,99.99
2018-04-01T07:07:25.165Z,99.99
2018-04-01T07:08:25.197Z,99.99
2018-04-01T07:09:25.152Z,99.99
2018-04-01T07:10:25.087Z,99.99
2018-04-01T07:11:25.086Z,99.99
2018-04-01T07:12:25.179Z,99.99
2018-04-01T07:13:25.088Z,99.99
2018-04-01T07:14:25.159Z,99.99
2018-04-01T07:15:25.110Z,99.99
2018-04-01T07:16:25.181Z,99.99
2018-04-01T07:17:25.098Z,99.99
2018-04-01T07:18:25.183Z,99.99
2018-04-01T07:19:25.101Z,99.99
2018-04-01T07:20:25.208Z,99.99
2018-04-01T07:21:25.094Z,99.99
2018-04-01T07:22:25.161Z,99.99
2018-04-01T07:23:25.093Z,99.99
2018-04-01T07:24:25.094Z,99.99
2018-04-01T07:25:25.208Z,99.99
2018-04-01T07:26:25.139Z,99.99
2018-04-01T07:27:25.145Z,99.99
2018-04-01T07:28:25.163Z,99.99
2018-04-01T07:29:25.105Z,99.99
2018-04-01T07:30:25.127Z,99.99
2018-04-01T07:31:25.105Z,99.99
2018-04-01T07:32:25.160Z,99.99
2018-04-01T07:33:25.184Z,99.99
2018-04-01T07:34:25.175Z,99.99
2018-04-01T07:35:25.166Z,99.99
2018-04-01T07:36:25.130Z,99.99
2018-04-01T07:37:25.167Z,99.94
2018-04-01T07:38:25.136Z,99.99
2018-04-01T07:39:25.162Z,99.99
2018-04-01T07:40:25.171Z,99.99
2018-04-01T07:41:25.138Z,99.99
2018-04-01T07:42:25.276Z,99.99
2018-04-01T07:43:25.218Z,99.99
2018-04-01T07:44:25.198Z,99.99
2018-04-01T07:45:25.153Z,99.99
2018-04-01T07:46:25.105Z,99.99
2018-04-01T07:47:25.104Z,99.99
2018-04-01T07:48:25.141Z,99.99
2018-04-01T07:49:25.116Z,99.99
2018-04-01T07:50:25.178Z,99.99
2018-04-01T07:51:25.231Z,99.99
2018-04-01T07:52:25.115Z,99.99
2018-04-01T07:53:25.173Z,99.99
2018-04-01T07:54:25.256Z,99.99
2018-04-01T07:55:25.148Z,99.99
2018-04-01T07:56:25.144Z,99.99
2018-04-01T07:57:25.209Z,99.99
2018-04-01T07:58:25.236Z,99.99
2018-04-01T07:59:25.241Z,99.99
2018-04-01T08:00:25.124Z,99.99
2018-04-01T08:01:25.206Z,99.99
2018-04-01T08:02:25.176Z,99.99
2018-04-01T08:03:25.147Z,99.99
2018-04-01T08:04:25.209Z,99.99
2018-04-01T08:05:25.190Z,99.99
2018-04-01T08:06:25.241Z,99.99
2018-04-01T08:07:25.116Z,99.99
2018-04-01T08:08:25.120Z,99.99
2018-04-01T08:09:25.131Z,99.99
2018-04-01T08:10:25.179Z,99.99
2018-04-01T08:11:25.236Z,99.99
2018-04-01T08:12:25.186Z,99.99
2018-04-01T08:13:25.241Z,99.99
2018-04-01T08:14:25.215Z,99.99
2018-04-01T08:15:25.158Z,99.99
2018-04-01T08:16:25.153Z,99.99
2018-04-01T08:17:25.248Z,99.99
2018-04-01T08:18:25.240Z,99.99
2018-04-01T08:19:25.192Z,99.99
2018-04-01T08:20:25.187Z,99.99
2018-04-01T08:21:25.192Z,99.99
2018-04-01T08:22:25.215Z,99.99
2018-04-01T08:23:25.231Z,99.99
2018-04-01T08:24:25.129Z,99.99
2018-04-01T08:25:25.175Z,99.99
2018-04-01T08:26:25.130Z,99.99
2018-04-01T08:27:25.179Z,99.99
2018-04-01T08:28:25.228Z,99.99
2018-04-01T08:29:25.124Z,99.99
2018-04-01T08:30:25.160Z,99.99
2018-04-01T08:31:25.148Z,99.99
2018-04-01T08:32:25.256Z,99.99
2018-04-01T08:33:25.248Z,99.99
2018-04-01T08:34:25.319Z,99.99
2018-04-01T08:35:25.160Z,99.99
2018-04-01T08:36:25.249Z,99.99
2018-04-01T08:37:25.145Z,99.99
2018-04-01T08:38:25.141Z,99.99
2018-04-01T08:39:25.222Z,99.99
2018-04-01T08:40:25.142Z,99.99
2018-04-01T08:41:25.231Z,99.99
2018-04-01T08:42:25.140Z,99.99
2018-04-01T08:43:25.215Z,99.99
2018-04-01T08:44:25.262Z,99.99
2018-04-01T08:45:25.256Z,99.99
2018-04-01T08:46:25.219Z,99.99
2018-04-01T08:47:25.216Z,99.99
2018-04-01T08:48:25.150Z,99.99
2018-04-01T08:49:25.215Z,99.99
2018-04-01T08:50:25.232Z,99.99
2018-04-01T08:51:25.153Z,99.99
2018-04-01T08:52:25.211Z,99.99
2018-04-01T08:53:25.158Z,99.99
2018-04-01T08:54:25.226Z,99.99
2018-04-01T08:55:25.181Z,99.99
2018-04-01T08:56:25.266Z,99.99
2018-04-01T08:57:25.262Z,99.99
2018-04-01T08:58:25.179Z,99.99
2018-04-01T08:59:25.287Z,99.99
2018-04-01T09:00:25.265Z,99.99
2018-04-01T09:01:25.269Z,99.99
2018-04-01T09:02:25.224Z,99.99
2018-04-01T09:03:25.278Z,99.99
2018-04-01T09:04:25.155Z,99.99
2018-04-01T09:05:25.276Z,99.99
2018-04-01T09:06:25.278Z,99.99
2018-04-01T09:07:25.230Z,99.99
2018-04-01T09:08:25.188Z,99.99
2018-04-01T09:09:25.164Z,99.99
2018-04-01T09:10:25.239Z,99.99
2018-04-01T09:11:25.247Z,99.99
2018-04-01T09:12:25.290Z,99.99
2018-04-01T09:13:25.162Z,99.99
2018-04-01T09:14:25.169Z,99.99
2018-04-01T09:15:25.160Z,99.99
2018-04-01T09:16:25.278Z,99.99
2018-04-01T09:17:25.234Z,99.99
2018-04-01T09:18:25.166Z,99.99
2018-04-01T09:19:25.293Z,99.99
2018-04-01T09:20:25.160Z,99.99
2018-04-01T09:21:25.165Z,99.99
2018-04-01T09:22:25.278Z,99.99
2018-04-01T09:23:25.231Z,99.99
2018-04-01T09:24:25.200Z,99.99
2018-04-01T09:25:25.172Z,99.99
2018-04-01T09:26:25.262Z,99.99
2018-04-01T09:27:25.285Z,99.99
2018-04-01T09:28:25.262Z,99.99
2018-04-01T09:29:25.314Z,99.99
2018-04-01T09:30:25.284Z,99.99
2018-04-01T09:31:25.262Z,99.99
2018-04-01T09:32:25.171Z,99.99
2018-04-01T09:33:25.200Z,99.99
2018-04-01T09:34:25.270Z,99.99
2018-04-01T09:35:25.214Z,99.99
2018-04-01T09:36:25.247Z,99.99
2018-04-01T09:37:25.206Z,99.99
2018-04-01T09:38:25.234Z,99.99
2018-04-01T09:39:25.231Z,99.99
2018-04-01T09:40:25.186Z,99.99
2018-04-01T09:41:25.245Z,99.99
2018-04-01T09:42:25.261Z,99.99
2018-04-01T09:43:25.237Z,99.99
2018-04-01T09:44:25.238Z,99.99
2018-04-01T09:45:25.212Z,99.99
2018-04-01T09:46:25.239Z,99.32
2018-04-01T09:47:25.300Z,98.91
2018-04-01T09:48:25.300Z,98.48
2018-04-01T09:49:25.211Z,97.88
2018-04-01T09:50:25.301Z,98.04
2018-04-01T09:51:25.213Z,97.66
2018-04-01T09:52:25.192Z,97.21
2018-04-01T09:53:25.214Z,97.39
2018-04-01T09:54:25.302Z,97.47
2018-04-01T09:55:25.304Z,97.53
2018-04-01T09:56:25.280Z,97.61
2018-04-01T09:57:25.256Z,97.47
2018-04-01T09:58:25.233Z,97.07
2018-04-01T09:59:25.302Z,97.28
2018-04-01T10:00:25.277Z,97.53
2018-04-01T10:01:25.215Z,97.21
2018-04-01T10:02:25.189Z,97.10
2018-04-01T10:03:25.346Z,97.26
2018-04-01T10:04:25.311Z,97.26
2018-04-01T10:05:25.312Z,97.18
2018-04-01T10:06:25.309Z,97.02
2018-04-01T10:07:25.290Z,97.07
2018-04-01T10:08:25.307Z,97.36
2018-04-01T10:09:25.310Z,97.39
2018-04-01T10:10:25.228Z,97.66
2018-04-01T10:11:25.289Z,97.88
2018-04-01T10:12:25.284Z,97.80
2018-04-01T10:13:25.316Z,97.88
2018-04-01T10:14:25.195Z,98.15
2018-04-01T10:15:25.268Z,98.15
2018-04-01T10:16:25.201Z,98.40
2018-04-01T10:17:25.322Z,98.45
2018-04-01T10:18:25.314Z,98.61
2018-04-01T10:19:25.287Z,98.66
2018-04-01T10:20:25.316Z,98.66
2018-04-01T10:21:25.324Z,98.85
2018-04-01T10:22:25.236Z,98.88
2018-04-01T10:23:25.249Z,98.83
2018-04-01T10:24:25.278Z,98.80
2018-04-01T10:25:25.237Z,98.72
2018-04-01T10:26:25.236Z,98.80
2018-04-01T10:27:25.267Z,98.83
2018-04-01T10:28:25.237Z,98.94
2018-04-01T10:29:25.200Z,98.85
2018-04-01T10:30:25.207Z,98.80
2018-04-01T10:31:25.212Z,98.80
2018-04-01T10:32:25.240Z,98.85
2018-04-01T10:33:25.329Z,98.85
2018-04-01T10:34:25.217Z,98.88
2018-04-01T10:35:25.304Z,98.80
2018-04-01T10:36:25.240Z,98.75
2018-04-01T10:37:25.242Z,98.61
2018-04-01T10:38:25.220Z,98.66
2018-04-01T10:39:25.237Z,98.55
2018-04-01T10:40:25.335Z,98.61
2018-04-01T10:41:25.271Z,98.61
2018-04-01T10:42:25.329Z,98.48
2018-04-01T10:43:25.335Z,98.45
2018-04-01T10:44:25.243Z,98.50
2018-04-01T10:45:25.297Z,98.53
2018-04-01T10:46:25.304Z,98.31
2018-04-01T10:47:25.225Z,98.37
2018-04-01T10:48:25.301Z,98.53
2018-04-01T10:49:25.283Z,98.42
2018-04-01T10:50:25.338Z,98.31
2018-04-01T10:51:25.304Z,98.02
2018-04-01T10:52:25.295Z,97.99
2018-04-01T10:53:25.252Z,98.02
2018-04-01T10:54:25.247Z,98.07
2018-04-01T10:55:25.341Z,98.02
2018-04-01T10:56:25.341Z,97.88
2018-04-01T10:57:25.287Z,97.88
2018-04-01T10:58:25.337Z,97.58
2018-04-01T10:59:25.342Z,97.50
2018-04-01T11:00:25.339Z,97.36
2018-04-01T11:01:25.226Z,97.28
2018-04-01T11:02:25.225Z,97.21
2018-04-01T11:03:25.235Z,97.26
2018-04-01T11:04:25.237Z,97.07
2018-04-01T11:05:25.291Z,97.04
2018-04-01T11:06:25.227Z,96.96
2018-04-01T11:07:25.228Z,97.02
2018-04-01T11:08:25.240Z,96.93
2018-04-01T11:09:25.280Z,97.21
2018-04-01T11:10:25.231Z,97.39
2018-04-01T11:11:25.232Z,97.15
2018-04-01T11:12:25.229Z,96.66
2018-04-01T11:13:25.242Z,95.94
2018-04-01T11:14:25.308Z,95.75
2018-04-01T11:15:25.354Z,95.53
2018-04-01T11:16:25.244Z,94.67
2018-04-01T11:17:25.357Z,94.53
2018-04-01T11:18:25.352Z,94.26
2018-04-01T11:19:25.351Z,93.54
2018-04-01T11:20:25.328Z,92.95
2018-04-01T11:21:25.302Z,93.21
2018-04-01T11:22:25.267Z,93.48
2018-04-01T11:23:25.332Z,92.95
2018-04-01T11:24:25.241Z,93.10
2018-04-01T11:25:25.332Z,93.21
2018-04-01T11:26:25.249Z,93.13
2018-04-01T11:27:25.276Z,93.10
2018-04-01T11:28:25.243Z,92.59
2018-04-01T11:29:25.360Z,92.91
2018-04-01T11:30:25.302Z,92.99
2018-04-01T11:31:25.366Z,92.08
2018-04-01T11:32:25.305Z,90.58
2018-04-01T11:33:25.246Z,89.29
2018-04-01T11:34:25.343Z,89.19
2018-04-01T11:35:25.360Z,88.76
2018-04-01T11:36:25.274Z,88.44
2018-04-01T11:37:25.309Z,89.00
2018-04-01T11:38:25.316Z,89.48
2018-04-01T11:39:25.338Z,89.43
2018-04-01T11:40:25.368Z,88.23
2018-04-01T11:41:25.282Z,88.46
2018-04-01T11:42:25.277Z,88.04
2018-04-01T11:43:25.319Z,87.02
2018-04-01T11:44:25.284Z,87.43
2018-04-01T11:45:25.373Z,87.93
2018-04-01T11:46:25.285Z,88.50
2018-04-01T11:47:25.330Z,87.69
2018-04-01T11:48:25.257Z,87.82
2018-04-01T11:49:25.317Z,86.65
2018-04-01T11:50:25.313Z,86.97
2018-04-01T11:51:25.316Z,86.87
2018-04-01T11:52:25.380Z,86.81
2018-04-01T11:53:25.251Z,86.81
2018-04-01T11:54:25.330Z,86.81
2018-04-01T11:55:25.257Z,87.05
2018-04-01T11:56:25.259Z,87.29
2018-04-01T11:57:25.320Z,87.45
2018-04-01T11:58:25.273Z,86.41
2018-04-01T11:59:25.333Z,85.72
2018-04-01T12:00:25.326Z,87.00
2018-04-01T12:01:25.375Z,87.10
2018-04-01T12:02:25.288Z,87.18
2018-04-01T12:03:25.261Z,87.34
2018-04-01T12:04:25.311Z,87.51
2018-04-01T12:05:25.336Z,86.68
2018-04-01T12:06:25.384Z,85.96
2018-04-01T12:07:25.272Z,84.92
2018-04-01T12:08:25.351Z,86.22
2018-04-01T12:09:25.389Z,86.44
2018-04-01T12:10:25.268Z,86.12
2018-04-01T12:11:25.300Z,86.12
2018-04-01T12:12:25.389Z,85.40
2018-04-01T12:13:25.272Z,84.58
2018-04-01T12:14:25.385Z,84.71
2018-04-01T12:15:25.274Z,84.60
2018-04-01T12:16:25.392Z,83.38
2018-04-01T12:17:25.336Z,84.50
2018-04-01T12:18:25.422Z,84.28
2018-04-01T12:19:25.290Z,84.92
2018-04-01T12:20:25.333Z,85.05
2018-04-01T12:21:25.343Z,84.26
2018-04-01T12:22:25.298Z,85.61
2018-04-01T12:23:25.276Z,84.95
2018-04-01T12:24:25.284Z,84.09
2018-04-01T12:25:25.349Z,84.50
2018-04-01T12:26:25.289Z,84.34
2018-04-01T12:27:25.397Z,84.74
2018-04-01T12:28:25.401Z,84.34
2018-04-01T12:29:25.371Z,84.39
2018-04-01T12:30:25.346Z,83.62
2018-04-01T12:31:25.291Z,83.86
2018-04-01T12:32:25.278Z,84.15
2018-04-01T12:33:25.291Z,85.11
2018-04-01T12:34:25.342Z,85.50
2018-04-01T12:35:25.403Z,86.17
2018-04-01T12:36:25.356Z,84.44
2018-04-01T12:37:25.361Z,83.99
2018-04-01T12:38:25.348Z,83.28
2018-04-01T12:39:25.290Z,83.38
2018-04-01T12:40:25.302Z,82.77
2018-04-01T12:41:25.375Z,83.44
2018-04-01T12:42:25.322Z,83.73
2018-04-01T12:43:25.322Z,83.01
2018-04-01T12:44:25.364Z,83.01
2018-04-01T12:45:25.331Z,82.03
2018-04-01T12:46:25.382Z,79.63
2018-04-01T12:47:25.416Z,79.36
2018-04-01T12:48:25.356Z,79.83
2018-04-01T12:49:25.357Z,79.68
2018-04-01T12:50:25.405Z,79.33
2018-04-01T12:51:25.324Z,79.36
2018-04-01T12:52:25.388Z,80.73